Time;durP1;ratioP1;P1;durP2;ratioP2;P2;SDS_P1;SDS_P2;PMS_P1;PMS_P2;Temp;Humidity;BMP_temperature;BMP_pressure;BME280_temperature;BME280_humidity;BME280_pressure;Samples;Min_cycle;Max_cycle;Signal;HPM_P1;HPM_P2
2023/01/27 00:00:19;;;;;;;3.00;2.80;;;-0.10;97.30;;;;;;5031595;28;20283;-87
2023/01/27 00:02:45;;;;;;;5.23;1.93;;;-0.10;97.30;;;;;;5032289;28;20175;-89
2023/01/27 00:05:13;;;;;;;11.27;4.57;;;-0.10;97.30;;;;;;5032584;28;20219;-87
2023/01/27 00:07:44;;;;;;;16.40;4.07;;;-0.10;97.30;;;;;;5032471;28;20267;-87
2023/01/27 00:10:13;;;;;;;4.80;3.13;;;-0.10;97.30;;;;;;5032462;28;20506;-87
2023/01/27 00:15:23;;;;;;;6.03;3.53;;;-0.10;97.30;;;;;;5034117;28;20442;-87
2023/01/27 00:17:48;;;;;;;5.93;3.23;;;-0.10;97.30;;;;;;5031982;28;20420;-86
2023/01/27 00:24:34;;;;;;;2.80;2.60;;;-0.10;97.30;;;;;;5032134;28;20599;-87
2023/01/27 00:25:49;;;;;;;1.70;1.60;;;-0.10;97.30;;;;;;5032665;28;20487;-87
2023/01/27 00:28:21;;;;;;;2.27;2.10;;;-0.10;97.30;;;;;;5031718;28;20422;-88
2023/01/27 00:30:48;;;;;;;3.40;2.90;;;-0.10;97.30;;;;;;5031977;28;20773;-87
2023/01/27 00:33:26;;;;;;;7.60;4.43;;;-0.10;97.30;;;;;;5031699;28;20419;-86
2023/01/27 00:36:02;;;;;;;5.63;1.60;;;-0.10;97.30;;;;;;5046629;28;20905;-84
2023/01/27 00:38:29;;;;;;;1.57;1.47;;;-0.10;97.30;;;;;;5052422;28;20507;-86
2023/01/27 00:43:39;;;;;;;2.40;2.20;;;-0.10;97.30;;;;;;5052914;28;20422;-86
2023/01/27 00:46:04;;;;;;;7.23;2.63;;;-0.10;97.30;;;;;;5050905;28;20414;-87
2023/01/27 00:48:30;;;;;;;3.37;3.20;;;-0.10;97.30;;;;;;5052828;28;20230;-87
2023/01/27 00:50:56;;;;;;;23.73;2.50;;;-0.10;97.30;;;;;;5034308;28;20631;-86
2023/01/27 00:53:21;;;;;;;2.67;2.47;;;-0.10;97.30;;;;;;5033808;28;20609;-87
2023/01/27 00:55:47;;;;;;;2.53;2.33;;;-0.10;97.30;;;;;;5051829;28;20186;-86
2023/01/27 00:58:13;;;;;;;3.57;2.10;;;-0.10;97.30;;;;;;5032926;28;20254;-88
2023/01/27 01:00:38;;;;;;;6.00;4.70;;;-0.10;97.30;;;;;;5034031;28;20223;-86
2023/01/27 01:03:04;;;;;;;4.43;3.73;;;-0.10;97.30;;;;;;5033743;28;20168;-86
2023/01/27 01:05:30;;;;;;;2.20;2.00;;;-0.10;97.30;;;;;;5033733;28;20649;-87
2023/01/27 01:07:55;;;;;;;1.77;1.67;;;-0.10;97.30;;;;;;5033639;28;20180;-87
2023/01/27 01:10:21;;;;;;;4.00;3.67;;;-0.10;97.30;;;;;;5033728;28;20654;-87
2023/01/27 01:12:47;;;;;;;3.80;2.00;;;-0.10;97.30;;;;;;5051523;28;20259;-86
2023/01/27 01:15:12;;;;;;;8.63;1.30;;;-0.10;97.30;;;;;;5034776;28;20431;-87
2023/01/27 01:17:38;;;;;;;1.67;1.57;;;-0.10;97.30;;;;;;5050621;28;20214;-88
2023/01/27 01:20:04;;;;;;;2.40;2.20;;;-0.10;97.30;;;;;;5050346;28;20763;-87
2023/01/27 01:22:29;;;;;;;3.47;2.90;;;-0.10;97.30;;;;;;5034018;28;20220;-87
2023/01/27 01:24:55;;;;;;;3.13;2.03;;;-0.20;97.30;;;;;;5030423;28;20474;-86
2023/01/27 01:27:20;;;;;;;3.57;2.23;;;-0.20;97.30;;;;;;5032111;28;20222;-87
2023/01/27 01:29:46;;;;;;;5.07;1.37;;;-0.20;97.30;;;;;;5032091;28;20191;-86
2023/01/27 01:32:11;;;;;;;2.90;2.70;;;-0.20;97.30;;;;;;5030727;28;20571;-87
2023/01/27 01:34:37;;;;;;;1.93;1.73;;;-0.20;97.30;;;;;;5026547;28;20200;-86
2023/01/27 01:37:03;;;;;;;2.33;2.13;;;-0.20;97.30;;;;;;5010661;28;20343;-87
2023/01/27 01:39:30;;;;;;;4.37;1.33;;;-0.20;97.30;;;;;;5012046;28;20186;-87
2023/01/27 01:41:55;;;;;;;3.63;1.33;;;-0.20;97.30;;;;;;5010755;28;20432;-88
2023/01/27 01:44:27;;;;;;;2.10;2.00;;;-0.20;97.30;;;;;;5010715;28;20443;-85
2023/01/27 01:46:53;;;;;;;2.27;2.07;;;-0.20;97.30;;;;;;5026760;28;20614;-87
2023/01/27 01:49:24;;;;;;;1.60;1.50;;;-0.20;97.30;;;;;;5030365;28;20930;-86
2023/01/27 01:51:55;;;;;;;5.23;3.03;;;-0.20;97.30;;;;;;5031177;28;20621;-86
2023/01/27 01:54:26;;;;;;;1.77;1.73;;;-0.20;97.30;;;;;;5030032;28;20957;-86
2023/01/27 01:57:06;;;;;;;1.37;1.27;;;-0.20;97.30;;;;;;5030321;28;20422;-87
2023/01/27 01:59:36;;;;;;;1.77;1.67;;;-0.20;97.30;;;;;;5030530;28;20521;-86
2023/01/27 02:02:06;;;;;;;2.50;1.80;;;-0.20;97.30;;;;;;5029938;28;20451;-86
2023/01/27 02:04:37;;;;;;;1.53;1.50;;;-0.20;97.30;;;;;;5030010;28;20521;-86
2023/01/27 02:07:17;;;;;;;2.60;1.43;;;-0.20;97.30;;;;;;5030351;28;20469;-86
2023/01/27 02:09:42;;;;;;;3.40;2.40;;;-0.20;97.30;;;;;;5030178;28;20425;-86
2023/01/27 02:12:08;;;;;;;1.63;1.53;;;-0.20;97.30;;;;;;5029966;28;20507;-86
2023/01/27 02:14:34;;;;;;;3.00;2.70;;;-0.20;97.30;;;;;;5029121;28;20271;-87
2023/01/27 02:16:59;;;;;;;1.83;1.73;;;-0.30;97.30;;;;;;5030344;28;20743;-86
2023/01/27 02:19:53;;;;;;;1.73;1.63;;;-0.30;97.30;;;;;;5029308;28;20181;-88
2023/01/27 02:22:43;;;;;;;2.43;2.23;;;-0.30;97.30;;;;;;5031380;28;20169;-87
2023/01/27 02:25:28;;;;;;;1.10;1.00;;;-0.30;97.30;;;;;;5030076;28;20466;-86
2023/01/27 02:27:53;;;;;;;6.03;3.00;;;-0.30;97.30;;;;;;5028888;28;20423;-88
2023/01/27 02:30:19;;;;;;;3.60;1.50;;;-0.30;97.30;;;;;;5030522;28;20448;-85
2023/01/27 02:32:44;;;;;;;2.07;1.93;;;-0.40;97.30;;;;;;5030397;28;20214;-87
2023/01/27 02:35:15;;;;;;;4.00;3.63;;;-0.40;97.30;;;;;;5030110;28;20445;-86
2023/01/27 02:37:41;;;;;;;2.13;1.97;;;-0.40;97.30;;;;;;5030095;28;20187;-87
2023/01/27 02:40:08;;;;;;;2.00;1.47;;;-0.40;97.30;;;;;;5030231;28;20447;-86
2023/01/27 02:42:33;;;;;;;3.07;2.87;;;-0.40;97.30;;;;;;5030211;28;20423;-87
2023/01/27 02:44:59;;;;;;;4.67;3.17;;;-0.40;97.30;;;;;;5030010;28;20443;-86
2023/01/27 02:47:24;;;;;;;1.57;1.50;;;-0.40;97.30;;;;;;5030142;28;20525;-88
2023/01/27 02:49:50;;;;;;;3.00;2.80;;;-0.40;97.30;;;;;;5046625;28;20188;-88
2023/01/27 02:52:15;;;;;;;2.63;2.13;;;-0.50;97.30;;;;;;5029759;28;20183;-86
2023/01/27 02:54:40;;;;;;;1.97;1.90;;;-0.40;97.30;;;;;;5046350;28;20675;-88
2023/01/27 02:57:06;;;;;;;7.43;4.00;;;-0.40;97.30;;;;;;5030226;28;20184;-86
2023/01/27 02:59:32;;;;;;;2.80;2.60;;;-0.50;97.30;;;;;;5030423;28;20185;-87
2023/01/27 03:01:57;;;;;;;6.10;3.20;;;-0.50;97.30;;;;;;5030585;28;20554;-86
2023/01/27 03:04:23;;;;;;;1.83;1.30;;;-0.40;97.30;;;;;;5030829;28;20197;-86
2023/01/27 03:06:48;;;;;;;3.67;1.53;;;-0.40;97.30;;;;;;5031993;28;20687;-88
2023/01/27 03:09:14;;;;;;;7.03;3.03;;;-0.40;97.30;;;;;;5048846;28;20260;-91
2023/01/27 03:19:52;;;;;;;3.83;2.70;;;-0.40;97.30;;;;;;5034686;28;20653;-88
2023/01/27 03:22:19;;;;;;;7.53;2.93;;;-0.40;97.30;;;;;;5033498;28;21129;-86
2023/01/27 03:24:44;;;;;;;8.27;3.07;;;-0.40;97.30;;;;;;5066200;22;20218;-87
2023/01/27 03:27:09;;;;;;;2.90;1.80;;;-0.40;97.30;;;;;;5073703;28;20425;-87
2023/01/27 03:29:53;;;;;;;3.07;2.50;;;-0.30;97.30;;;;;;5074046;28;20276;-87
2023/01/27 03:32:19;;;;;;;2.97;2.73;;;-0.30;97.30;;;;;;5073242;28;20170;-87
2023/01/27 03:34:44;;;;;;;3.63;2.13;;;-0.30;97.30;;;;;;5077139;28;20802;-87
2023/01/27 03:48:06;;;;;;;3.87;3.10;;;-0.30;97.30;;;;;;5104435;27;20553;-88
2023/01/27 03:50:42;;;;;;;4.00;2.37;;;-0.30;97.30;;;;;;5102128;28;20506;-88
2023/01/27 03:53:09;;;;;;;3.03;1.97;;;-0.30;97.30;;;;;;5085917;28;20688;-87
2023/01/27 03:55:36;;;;;;;6.07;3.90;;;-0.30;97.30;;;;;;5102036;28;20454;-87
2023/01/27 03:58:17;;;;;;;10.93;4.10;;;-0.30;97.30;;;;;;5084973;28;20415;-88
2023/01/27 04:00:44;;;;;;;5.30;2.33;;;-0.30;97.30;;;;;;5101637;28;20448;-87
2023/01/27 04:08:40;;;;;;;3.50;3.03;;;-0.30;97.30;;;;;;5099925;28;20458;-87
2023/01/27 04:14:07;;;;;;;2.87;2.67;;;-0.30;97.30;;;;;;5103806;28;20956;-85
2023/01/27 04:16:35;;;;;;;2.33;1.90;;;-0.30;97.30;;;;;;5076578;28;20440;-87
2023/01/27 04:19:01;;;;;;;2.57;2.43;;;-0.30;97.30;;;;;;5080804;28;20498;-87
2023/01/27 04:21:29;;;;;;;11.53;4.67;;;-0.30;97.30;;;;;;5095884;28;20526;-86
2023/01/27 04:24:21;;;;;;;2.03;1.80;;;-0.30;97.30;;;;;;5114453;28;20408;-86
2023/01/27 04:26:48;;;;;;;2.70;2.50;;;-0.30;97.30;;;;;;5093882;28;20470;-85
2023/01/27 04:29:14;;;;;;;1.47;1.37;;;-0.30;97.30;;;;;;5076232;28;20409;-86
2023/01/27 04:31:41;;;;;;;2.90;2.70;;;-0.30;97.30;;;;;;5085050;28;20480;-87
2023/01/27 04:34:07;;;;;;;2.83;2.40;;;-0.30;97.30;;;;;;5095085;28;20439;-86
2023/01/27 04:36:33;;;;;;;4.47;3.77;;;-0.20;97.30;;;;;;5093402;28;20455;-87
2023/01/27 04:38:59;;;;;;;1.60;1.50;;;-0.20;97.30;;;;;;5098106;28;20793;-87
2023/01/27 04:41:25;;;;;;;3.70;3.13;;;-0.20;97.30;;;;;;5091624;28;20265;-87
2023/01/27 04:43:50;;;;;;;2.60;1.40;;;-0.20;97.30;;;;;;5087524;28;20432;-88
2023/01/27 04:46:16;;;;;;;4.13;1.63;;;-0.20;97.30;;;;;;5075446;28;20913;-88
2023/01/27 04:48:41;;;;;;;1.83;1.73;;;-0.20;97.30;;;;;;5088141;27;20190;-87
2023/01/27 04:51:07;;;;;;;6.50;3.43;;;-0.20;97.30;;;;;;5106440;28;20179;-87
2023/01/27 04:53:32;;;;;;;1.53;1.43;;;-0.20;97.30;;;;;;5076228;28;20175;-87
2023/01/27 04:56:04;;;;;;;1.83;1.73;;;-0.30;97.30;;;;;;5076031;28;20297;-87
2023/01/27 04:58:30;;;;;;;3.47;3.27;;;-0.20;97.30;;;;;;5076005;28;20174;-88
2023/01/27 05:00:56;;;;;;;4.37;4.10;;;-0.20;97.30;;;;;;5075548;28;20458;-87
2023/01/27 05:03:21;;;;;;;2.33;1.80;;;-0.20;97.30;;;;;;5093675;28;20550;-87
2023/01/27 05:05:46;;;;;;;1.30;1.20;;;-0.20;97.30;;;;;;5100217;28;20668;-87
2023/01/27 05:08:12;;;;;;;2.90;2.70;;;-0.30;97.30;;;;;;5085898;28;20170;-87
2023/01/27 05:10:38;;;;;;;8.53;3.03;;;-0.20;97.30;;;;;;5088585;28;20178;-87
2023/01/27 05:13:03;;;;;;;4.00;2.53;;;-0.20;97.30;;;;;;5088071;28;20187;-88
2023/01/27 05:15:29;;;;;;;2.63;2.40;;;-0.20;97.30;;;;;;5075174;28;20541;-88
2023/01/27 05:17:55;;;;;;;13.23;2.33;;;-0.20;97.30;;;;;;5093299;28;20190;-88
2023/01/27 05:20:21;;;;;;;6.00;2.30;;;-0.20;97.30;;;;;;5075208;28;20452;-87
2023/01/27 05:22:46;;;;;;;2.07;1.90;;;-0.20;97.30;;;;;;5075308;28;20228;-87
2023/01/27 05:25:12;;;;;;;3.93;2.43;;;-0.20;97.30;;;;;;5074928;28;20317;-87
2023/01/27 05:27:38;;;;;;;3.33;3.13;;;-0.20;97.30;;;;;;5075245;28;20681;-88
2023/01/27 05:30:04;;;;;;;2.87;1.70;;;-0.20;97.30;;;;;;5075088;28;20182;-88
2023/01/27 05:32:29;;;;;;;1.77;1.67;;;-0.20;97.30;;;;;;5093044;28;20182;-88
2023/01/27 05:38:17;;;;;;;1.90;1.80;;;-0.20;97.30;;;;;;5101623;28;20408;-88
2023/01/27 05:40:42;;;;;;;6.73;3.23;;;-0.20;97.30;;;;;;5080245;28;20864;-88
2023/01/27 05:43:08;;;;;;;1.20;1.10;;;-0.20;97.30;;;;;;5089968;27;20192;-88
2023/01/27 05:45:33;;;;;;;1.53;1.43;;;-0.20;97.30;;;;;;5112711;27;20197;-87
2023/01/27 05:47:59;;;;;;;3.83;1.63;;;-0.20;97.30;;;;;;5112283;27;20172;-88
2023/01/27 05:50:27;;;;;;;2.60;2.07;;;-0.20;97.30;;;;;;5113463;27;20231;-88
2023/01/27 05:52:52;;;;;;;3.73;2.33;;;-0.20;97.30;;;;;;5113353;27;20317;-88
2023/01/27 05:55:18;;;;;;;14.83;1.97;;;-0.20;97.30;;;;;;5131442;27;20533;-88
2023/01/27 05:57:43;;;;;;;2.20;1.57;;;-0.20;97.30;;;;;;5112851;27;20310;-88
2023/01/27 06:00:09;;;;;;;1.97;1.87;;;-0.20;97.30;;;;;;5111604;27;20197;-87
2023/01/27 06:02:35;;;;;;;5.07;2.20;;;-0.10;97.30;;;;;;5080092;28;20189;-88
2023/01/27 06:05:00;;;;;;;1.60;1.50;;;-0.10;97.30;;;;;;5070961;28;20435;-87
2023/01/27 06:07:26;;;;;;;1.60;1.57;;;-0.10;97.30;;;;;;5088751;28;20249;-88
2023/01/27 06:09:51;;;;;;;3.57;2.17;;;-0.10;97.30;;;;;;5071185;28;20216;-88
2023/01/27 06:12:17;;;;;;;2.70;2.50;;;-0.10;97.30;;;;;;5071322;28;20185;-87
2023/01/27 06:14:42;;;;;;;7.97;1.80;;;-0.10;97.30;;;;;;5072352;28;20206;-87
2023/01/27 06:17:08;;;;;;;2.70;2.50;;;-0.10;97.30;;;;;;5072715;28;20186;-87
2023/01/27 06:19:33;;;;;;;2.53;1.73;;;-0.10;97.30;;;;;;5111517;28;20195;-88
2023/01/27 06:21:59;;;;;;;3.87;2.83;;;-0.10;97.30;;;;;;5131394;27;20609;-87
2023/01/27 06:24:24;;;;;;;1.30;1.20;;;-0.10;97.30;;;;;;5112993;28;20173;-88
2023/01/27 06:26:49;;;;;;;6.37;3.40;;;-0.10;97.30;;;;;;5112959;28;20662;-87
2023/01/27 06:29:15;;;;;;;4.37;1.53;;;0.00;97.30;;;;;;5113442;28;20268;-89
2023/01/27 06:31:40;;;;;;;4.20;1.23;;;0.00;97.30;;;;;;5113165;28;20583;-88
2023/01/27 06:34:06;;;;;;;2.80;2.13;;;0.00;97.30;;;;;;5113011;28;20177;-88
2023/01/27 06:36:31;;;;;;;1.97;1.87;;;0.00;97.30;;;;;;5092461;28;20543;-88
2023/01/27 06:38:57;;;;;;;3.47;2.93;;;0.00;97.30;;;;;;5092577;28;20183;-88
2023/01/27 06:41:23;;;;;;;1.50;1.40;;;0.00;97.30;;;;;;5093457;28;20288;-87
2023/01/27 06:43:49;;;;;;;1.93;1.83;;;0.00;97.30;;;;;;5095269;28;20189;-89
2023/01/27 06:46:14;;;;;;;3.27;2.03;;;0.00;97.30;;;;;;5097018;28;20460;-89
2023/01/27 06:48:40;;;;;;;4.93;4.50;;;0.00;97.30;;;;;;5097652;28;20647;-88
2023/01/27 06:51:06;;;;;;;2.43;2.20;;;0.00;97.30;;;;;;5113356;28;20181;-88
2023/01/27 06:53:31;;;;;;;7.30;2.47;;;0.00;97.30;;;;;;5115731;28;20237;-89
2023/01/27 06:55:59;;;;;;;2.00;1.90;;;0.00;97.30;;;;;;5114422;28;20246;-88
2023/01/27 06:58:25;;;;;;;2.90;2.13;;;0.00;97.30;;;;;;5132749;28;20170;-88
2023/01/27 07:00:51;;;;;;;1.33;1.23;;;0.00;97.30;;;;;;5115309;28;20458;-88
2023/01/27 07:03:16;;;;;;;1.90;1.53;;;0.00;97.30;;;;;;5117973;28;20469;-88
2023/01/27 07:05:42;;;;;;;5.30;2.03;;;0.00;97.30;;;;;;5114062;28;20530;-88
2023/01/27 07:08:08;;;;;;;4.23;3.53;;;0.00;97.30;;;;;;5119408;28;20182;-88
2023/01/27 07:10:34;;;;;;;2.70;2.10;;;0.00;97.30;;;;;;5103772;28;20441;-89
2023/01/27 07:13:07;;;;;;;2.37;1.00;;;0.00;97.30;;;;;;5099575;28;20422;-88
2023/01/27 07:15:33;;;;;;;8.63;3.40;;;0.00;97.30;;;;;;5117275;28;20675;-89
2023/01/27 07:18:00;;;;;;;3.37;2.67;;;0.00;97.30;;;;;;5096649;28;20985;-89
2023/01/27 07:20:27;;;;;;;2.97;2.23;;;0.00;97.30;;;;;;5116516;28;20476;-88
2023/01/27 07:23:00;;;;;;;1.97;1.83;;;0.00;97.30;;;;;;5097006;28;20479;-89
2023/01/27 07:25:25;;;;;;;4.20;3.97;;;0.10;97.30;;;;;;5096772;28;20471;-89
2023/01/27 07:27:51;;;;;;;1.63;1.53;;;0.10;97.30;;;;;;5097837;28;20477;-90
2023/01/27 07:30:17;;;;;;;1.57;1.47;;;0.10;97.30;;;;;;5097423;28;20273;-88
2023/01/27 07:32:42;;;;;;;1.90;1.77;;;0.10;97.30;;;;;;5097436;28;20181;-89
2023/01/27 07:35:08;;;;;;;1.37;1.27;;;0.10;97.30;;;;;;5088497;28;20451;-89
2023/01/27 07:37:33;;;;;;;2.43;2.23;;;0.20;97.30;;;;;;5077391;28;20174;-89
2023/01/27 07:39:59;;;;;;;2.43;2.23;;;0.20;97.30;;;;;;5077064;28;20203;-89
2023/01/27 07:42:24;;;;;;;1.43;1.33;;;0.20;97.30;;;;;;5076912;28;20185;-89
2023/01/27 07:44:50;;;;;;;1.40;1.30;;;0.20;97.30;;;;;;5094652;28;20186;-89
2023/01/27 07:48:05;;;;;;;5.70;2.70;;;0.20;97.30;;;;;;5076900;28;20182;-89
2023/01/27 07:50:47;;;;;;;2.27;2.07;;;0.20;97.30;;;;;;5077177;28;20264;-90
2023/01/27 07:53:56;;;;;;;13.13;1.70;;;0.30;97.30;;;;;;5076792;28;20460;-89
2023/01/27 07:56:35;;;;;;;1.93;1.83;;;0.30;97.30;;;;;;5076004;28;20516;-89
2023/01/27 07:59:26;;;;;;;7.40;2.90;;;0.30;97.30;;;;;;5076866;28;20459;-89
2023/01/27 08:01:57;;;;;;;1.60;1.37;;;0.40;97.30;;;;;;5076920;28;20554;-90
2023/01/27 08:04:36;;;;;;;2.43;1.47;;;0.40;97.30;;;;;;5076585;28;20428;-89
2023/01/27 08:07:18;;;;;;;;;;;;;;;;;;;;;
2023/01/27 08:09:44;;;;;;;1.80;1.57;;;0.40;97.30;;;;;;5091603;28;20423;-89
2023/01/27 08:12:09;;;;;;;2.43;1.83;;;0.40;97.30;;;;;;5077070;28;20445;-90
2023/01/27 08:14:35;;;;;;;1.90;1.77;;;0.50;97.30;;;;;;5076910;28;20184;-89
2023/01/27 08:17:00;;;;;;;1.83;1.73;;;0.50;97.30;;;;;;5077076;28;20186;-89
2023/01/27 08:19:26;;;;;;;2.37;2.17;;;0.50;97.30;;;;;;5076985;28;20178;-90
2023/01/27 08:21:51;;;;;;;3.60;2.83;;;0.50;97.30;;;;;;5077077;28;20301;-88
2023/01/27 08:24:17;;;;;;;2.70;2.50;;;0.50;97.30;;;;;;5078584;28;20171;-90
2023/01/27 08:26:43;;;;;;;1.37;1.27;;;0.60;97.30;;;;;;5077745;28;20258;-90
2023/01/27 08:29:08;;;;;;;1.73;1.63;;;0.60;97.30;;;;;;5077604;28;20269;-90
2023/01/27 08:31:33;;;;;;;1.60;1.50;;;0.60;97.30;;;;;;5076557;28;20216;-90
2023/01/27 08:33:59;;;;;;;2.80;1.53;;;0.60;97.30;;;;;;5096698;28;20182;-90
2023/01/27 08:36:25;;;;;;;2.60;2.40;;;0.70;97.30;;;;;;5095460;28;20601;-89
2023/01/27 08:38:51;;;;;;;1.87;1.77;;;0.70;97.30;;;;;;5075032;28;20257;-90
2023/01/27 08:41:26;;;;;;;2.07;1.93;;;0.70;97.30;;;;;;5076142;28;20232;-89
2023/01/27 08:43:54;;;;;;;1.47;1.40;;;0.80;97.30;;;;;;5094093;28;20432;-89
2023/01/27 08:46:19;;;;;;;1.03;0.93;;;0.80;97.30;;;;;;5093754;28;20416;-90
2023/01/27 08:48:45;;;;;;;1.20;1.10;;;0.80;97.30;;;;;;5076817;28;20945;-89
2023/01/27 08:51:13;;;;;;;2.23;2.03;;;0.90;97.30;;;;;;5076347;28;20471;-89
2023/01/27 08:53:38;;;;;;;1.40;1.30;;;0.90;97.30;;;;;;5076438;28;20273;-89
2023/01/27 08:56:07;;;;;;;1.83;1.73;;;0.90;97.30;;;;;;5076110;28;20868;-90
2023/01/27 08:58:33;;;;;;;2.93;1.10;;;1.00;97.30;;;;;;5076148;28;20629;-90
2023/01/27 09:01:03;;;;;;;1.70;1.57;;;0.90;97.30;;;;;;5075817;28;20497;-89
2023/01/27 09:03:30;;;;;;;3.10;2.90;;;1.00;97.30;;;;;;5075668;28;20504;-89
2023/01/27 09:05:56;;;;;;;6.23;2.10;;;1.00;97.30;;;;;;5093497;28;20452;-90
2023/01/27 09:08:22;;;;;;;4.67;1.80;;;1.00;97.30;;;;;;5075139;28;20423;-89
2023/01/27 09:10:47;;;;;;;2.37;2.17;;;1.00;97.30;;;;;;5075776;28;20648;-89
2023/01/27 09:13:13;;;;;;;1.10;1.00;;;1.00;97.30;;;;;;5075466;28;20417;-89
2023/01/27 09:15:39;;;;;;;5.73;2.80;;;1.00;97.30;;;;;;5075672;28;20208;-89
2023/01/27 09:18:05;;;;;;;1.77;1.67;;;1.00;97.30;;;;;;5075272;28;20251;-89
2023/01/27 09:20:31;;;;;;;1.83;1.73;;;1.00;97.30;;;;;;5074969;28;20861;-89
2023/01/27 09:22:57;;;;;;;1.97;1.87;;;1.00;97.30;;;;;;5075146;28;20415;-89
2023/01/27 09:25:25;;;;;;;1.40;1.30;;;1.00;97.30;;;;;;5114462;22;20530;-88
2023/01/27 09:27:55;;;;;;;5.57;3.03;;;1.10;97.30;;;;;;5092965;28;20183;-86
2023/01/27 09:30:21;;;;;;;3.97;2.30;;;1.10;97.30;;;;;;5074873;28;20408;-86
2023/01/27 09:32:46;;;;;;;3.17;2.50;;;1.10;97.30;;;;;;5075329;28;20475;-87
2023/01/27 09:35:12;;;;;;;2.30;2.10;;;1.10;97.30;;;;;;5075289;28;20448;-86
2023/01/27 09:37:47;;;;;;;3.83;3.63;;;1.20;97.30;;;;;;5073973;28;20174;-87
2023/01/27 09:40:29;;;;;;;1.43;1.33;;;1.20;97.30;;;;;;5074708;28;20206;-86
2023/01/27 09:43:11;;;;;;;4.37;2.73;;;1.20;97.30;;;;;;5074770;28;20500;-89
2023/01/27 09:45:53;;;;;;;6.70;3.60;;;1.20;97.30;;;;;;5053809;28;21175;-87
2023/01/27 09:48:54;;;;;;;2.47;2.27;;;1.30;97.30;;;;;;5053791;28;20954;-86
2023/01/27 09:51:33;;;;;;;3.63;1.63;;;1.30;97.30;;;;;;5054269;28;20413;-86
2023/01/27 09:54:09;;;;;;;1.93;1.83;;;1.40;97.30;;;;;;5054864;28;21002;-86
2023/01/27 09:56:50;;;;;;;1.60;1.50;;;1.40;97.30;;;;;;5054311;28;20467;-86
2023/01/27 09:59:36;;;;;;;1.50;1.40;;;1.40;97.30;;;;;;5054686;28;20416;-87
2023/01/27 10:02:57;;;;;;;1.67;1.57;;;1.30;97.30;;;;;;5054635;28;20460;-88
2023/01/27 10:05:47;;;;;;;5.80;4.03;;;1.30;97.30;;;;;;4954425;28;20446;-87
2023/01/27 10:09:38;;;;;;;2.53;2.33;;;1.40;97.30;;;;;;4955291;28;20407;-87
2023/01/27 10:12:37;;;;;;;2.83;1.73;;;1.40;97.30;;;;;;4892844;29;20466;-86
2023/01/27 10:15:28;;;;;;;1.53;1.43;;;1.40;97.30;;;;;;4903924;28;20472;-87
2023/01/27 10:19:07;;;;;;;2.50;2.37;;;1.50;97.30;;;;;;5053863;28;20496;-86
2023/01/27 10:22:26;;;;;;;2.30;1.27;;;1.50;97.30;;;;;;4923830;28;20461;-88
2023/01/27 10:25:24;;;;;;;9.33;6.00;;;1.50;97.30;;;;;;4895273;29;20429;-87
2023/01/27 10:27:56;;;;;;;1.33;1.23;;;1.50;97.30;;;;;;4916304;29;20435;-87
2023/01/27 10:30:41;;;;;;;10.17;3.30;;;1.50;97.30;;;;;;5044777;28;20410;-89
2023/01/27 10:33:17;;;;;;;1.53;1.43;;;1.50;97.30;;;;;;5071501;28;20619;-87
2023/01/27 10:35:57;;;;;;;8.43;2.53;;;1.50;97.30;;;;;;5072561;28;20448;-89
2023/01/27 10:38:36;;;;;;;9.30;2.83;;;1.50;97.30;;;;;;5073793;28;20441;-90
2023/01/27 10:41:26;;;;;;;1.63;1.53;;;1.50;97.30;;;;;;5068166;28;20461;-88
2023/01/27 10:44:17;;;;;;;1.50;1.40;;;1.50;97.30;;;;;;5054166;28;20418;-86
2023/01/27 10:47:15;;;;;;;2.47;2.27;;;1.60;97.30;;;;;;5054364;28;20526;-86
2023/01/27 10:49:52;;;;;;;10.80;2.20;;;1.60;97.30;;;;;;5054671;28;20413;-86
2023/01/27 10:52:28;;;;;;;1.83;1.73;;;1.60;97.30;;;;;;5054974;28;20919;-86
2023/01/27 10:55:20;;;;;;;3.40;2.10;;;1.70;97.30;;;;;;5055335;28;20428;-88
2023/01/27 10:58:00;;;;;;;2.13;1.97;;;1.70;97.30;;;;;;5055853;28;20417;-88
2023/01/27 11:00:38;;;;;;;7.83;5.03;;;1.70;97.30;;;;;;5089025;28;20453;-90
2023/01/27 11:03:29;;;;;;;1.20;1.10;;;1.70;97.30;;;;;;5074891;28;20425;-92
2023/01/27 11:06:03;;;;;;;1.53;1.43;;;1.70;97.30;;;;;;5075260;28;20433;-89
2023/01/27 11:08:34;;;;;;;1.53;1.43;;;1.70;97.30;;;;;;5074567;28;20461;-90
2023/01/27 11:13:49;;;;;;;3.00;2.80;;;1.80;97.30;;;;;;5091649;28;20727;-89
2023/01/27 11:16:18;;;;;;;1.40;1.20;;;1.80;97.30;;;;;;5074504;28;20448;-90
2023/01/27 11:18:45;;;;;;;2.70;2.50;;;1.80;97.30;;;;;;5092438;28;20417;-90
2023/01/27 11:21:20;;;;;;;2.50;2.30;;;1.80;97.30;;;;;;5074305;28;20467;-88
2023/01/27 11:23:52;;;;;;;1.10;1.00;;;1.90;97.30;;;;;;5073704;28;20451;-88
2023/01/27 11:26:41;;;;;;;1.70;1.63;;;1.90;97.30;;;;;;5074177;28;20488;-88
2023/01/27 11:29:26;;;;;;;6.50;3.00;;;1.90;97.30;;;;;;5073812;28;20421;-90
2023/01/27 11:32:18;;;;;;;1.77;1.67;;;1.90;97.30;;;;;;5077165;28;20478;-90
2023/01/27 11:35:10;;;;;;;1.40;1.30;;;1.90;97.30;;;;;;5065458;28;20427;-87
2023/01/27 11:37:44;;;;;;;1.90;1.80;;;2.00;97.30;;;;;;5076700;28;20435;-85
2023/01/27 11:40:31;;;;;;;2.40;1.83;;;2.00;97.30;;;;;;5076286;28;20459;-86
2023/01/27 11:42:57;;;;;;;2.13;1.97;;;2.10;97.30;;;;;;5076410;28;20468;-87
2023/01/27 11:45:24;;;;;;;2.30;1.30;;;2.10;97.30;;;;;;5076369;28;20433;-86
2023/01/27 11:47:54;;;;;;;2.97;2.23;;;2.10;97.30;;;;;;5076520;28;20412;-86
2023/01/27 11:50:35;;;;;;;1.23;1.13;;;2.20;97.30;;;;;;5062203;28;20422;-86
2023/01/27 11:53:26;;;;;;;2.10;1.97;;;2.20;97.30;;;;;;5060219;28;20425;-86
2023/01/27 11:56:16;;;;;;;2.70;2.50;;;2.20;97.30;;;;;;5061994;28;20433;-86
2023/01/27 11:59:35;;;;;;;4.00;1.60;;;2.20;97.30;;;;;;5068677;28;20416;-86
2023/01/27 12:02:31;;;;;;;2.40;1.63;;;2.20;97.30;;;;;;4995398;28;21012;-87
2023/01/27 12:05:17;;;;;;;1.93;1.53;;;2.10;97.30;;;;;;5009828;28;20455;-89
2023/01/27 12:08:16;;;;;;;1.10;1.00;;;2.10;97.30;;;;;;5067904;28;20505;-85
2023/01/27 12:11:27;;;;;;;1.40;1.30;;;2.20;97.30;;;;;;5068663;28;20431;-86
2023/01/27 12:14:07;;;;;;;1.00;0.90;;;2.20;97.30;;;;;;5059934;28;20424;-87
2023/01/27 12:16:42;;;;;;;1.97;1.60;;;2.20;97.30;;;;;;5061029;28;20506;-87
2023/01/27 12:19:27;;;;;;;1.70;1.60;;;2.20;97.30;;;;;;5064628;28;20423;-91
2023/01/27 12:21:57;;;;;;;1.03;0.93;;;2.20;97.30;;;;;;5057529;28;20452;-88
2023/01/27 12:24:34;;;;;;;1.50;1.40;;;2.20;97.30;;;;;;5054958;28;20449;-87
2023/01/27 12:27:01;;;;;;;1.20;1.10;;;2.20;97.30;;;;;;5054989;28;20525;-90
2023/01/27 12:29:38;;;;;;;1.23;1.13;;;2.20;97.30;;;;;;5055539;28;20453;-87
2023/01/27 12:32:33;;;;;;;0.93;0.83;;;2.20;97.30;;;;;;5055710;28;20458;-87
2023/01/27 12:35:01;;;;;;;2.10;1.17;;;2.30;97.30;;;;;;5053636;28;20854;-87
2023/01/27 12:37:34;;;;;;;2.53;1.07;;;2.20;97.30;;;;;;5063086;28;20418;-87
2023/01/27 12:40:03;;;;;;;1.57;1.47;;;2.20;97.30;;;;;;5066699;28;20412;-86
2023/01/27 12:42:46;;;;;;;8.23;2.37;;;2.20;97.30;;;;;;5074401;28;20423;-87
2023/01/27 12:45:20;;;;;;;1.10;1.00;;;2.20;97.30;;;;;;5074432;28;20478;-88
2023/01/27 12:47:58;;;;;;;1.10;1.00;;;2.20;97.30;;;;;;5075377;28;20990;-87
2023/01/27 12:50:27;;;;;;;1.47;1.37;;;2.20;97.30;;;;;;5074934;28;21006;-87
2023/01/27 12:53:04;;;;;;;1.53;1.43;;;2.20;97.30;;;;;;5075238;28;20417;-90
2023/01/27 12:55:37;;;;;;;1.10;1.00;;;2.20;97.30;;;;;;5074728;28;20961;-87
2023/01/27 12:58:03;;;;;;;2.03;1.90;;;2.20;97.30;;;;;;5081543;28;20424;-87
2023/01/27 13:00:32;;;;;;;1.10;1.00;;;2.20;97.30;;;;;;5057394;28;20529;-86
2023/01/27 13:03:13;;;;;;;1.10;1.00;;;2.20;97.30;;;;;;5058645;28;20524;-87
2023/01/27 13:06:07;;;;;;;1.00;0.90;;;2.20;97.30;;;;;;5067934;22;20926;-87
2023/01/27 13:08:38;;;;;;;1.57;1.50;;;2.20;97.30;;;;;;5026316;28;20450;-88
2023/01/27 13:11:07;;;;;;;1.07;0.97;;;2.20;97.30;;;;;;5035197;28;20442;-87
2023/01/27 13:13:36;;;;;;;0.97;0.87;;;2.20;97.30;;;;;;5035021;28;20453;-86
2023/01/27 13:16:15;;;;;;;1.33;1.17;;;2.30;97.30;;;;;;5058136;22;20994;-86
2023/01/27 13:19:45;;;;;;;1.37;1.27;;;2.30;97.30;;;;;;5074988;28;20414;-87
2023/01/27 13:21:56;;;;;;;0.90;0.80;;;2.40;97.30;;;;;;5077296;28;20498;-87
2023/01/27 13:24:39;;;;;;;1.23;1.13;;;2.40;97.30;;;;;;5074674;28;20448;-87
2023/01/27 13:27:10;;;;;;;1.40;1.30;;;2.40;97.30;;;;;;5074280;28;20523;-83
2023/01/27 13:29:39;;;;;;;1.17;1.10;;;2.40;97.30;;;;;;5075065;28;21033;-86
2023/01/27 13:32:19;;;;;;;1.23;1.17;;;2.40;97.30;;;;;;5074698;28;20495;-86
2023/01/27 13:35:02;;;;;;;0.90;0.80;;;2.40;97.30;;;;;;5074751;28;20941;-86
2023/01/27 13:37:33;;;;;;;1.50;1.40;;;2.40;97.30;;;;;;5074460;28;20416;-89
2023/01/27 13:40:12;;;;;;;1.37;1.27;;;2.40;97.30;;;;;;5092987;28;20400;-87
2023/01/27 13:43:18;;;;;;;1.10;1.00;;;2.40;97.30;;;;;;5075028;28;20416;-86
2023/01/27 13:45:56;;;;;;;1.33;1.23;;;2.40;97.30;;;;;;5073776;28;20811;-86
2023/01/27 13:48:36;;;;;;;1.00;0.90;;;2.40;97.30;;;;;;5074654;28;20440;-86
2023/01/27 13:51:16;;;;;;;1.10;1.00;;;2.40;97.30;;;;;;5093353;28;20412;-86
2023/01/27 13:53:45;;;;;;;1.00;0.90;;;2.40;97.30;;;;;;5074140;28;20439;-86
2023/01/27 13:56:30;;;;;;;1.00;0.90;;;2.40;97.30;;;;;;5074608;28;20841;-86
2023/01/27 13:59:18;;;;;;;1.00;0.90;;;2.40;97.30;;;;;;5075498;28;20935;-88
2023/01/27 14:02:22;;;;;;;1.37;1.27;;;2.40;97.30;;;;;;5075328;28;20823;-86